Pongnae — 3FDZ8 — position and weather

sailwx.info

Track history (hours):
 
Tides and Currents Weather Stations Pressure Air Temp Water Temp Dewpoint Dewpoint Depression Visibility Wind Speed Wind Dir Waves Ship Positions

Pongnae

Operator: V Ships Leisure SAM

Last reported at 2014-Dec-22 00:32 UTC. Time now 2014-Dec-22 00:36 UTC.
Position N 22°18' E 114°13'.

Length 171 m; draft 6.6 m.

Type: Passenger vessel. MMSI: 353669000.

Date/timePositionNaut miles runAvg speedWind from/ knotsBaromVisibWave heightAir tempDewpointWater temp
2014-Dec-22 00:32N 22°18' E 114°13'1 1.4
2014-Dec-21 23:33N 22°17' E 114°14'8 7.4
2014-Dec-21 22:27N 22°10' E 114°20'2 0.2
2014-Dec-21 13:21N 22°12' E 114°19'810.0
2014-Dec-21 12:33N 22°18' E 114°13'0 0.1
2014-Dec-21 11:33N 22°18' E 114°13'0 0.0
2014-Dec-21 10:33N 22°18' E 114°13'0 0.0
2014-Dec-21 09:33N 22°18' E 114°13'0 0.0
2014-Dec-21 08:33N 22°18' E 114°13'0 0.0
2014-Dec-21 07:33N 22°18' E 114°13'0 0.0
2014-Dec-21 06:33N 22°18' E 114°13'0 0.1
2014-Dec-21 05:33N 22°18' E 114°13'0 0.0
2014-Dec-21 04:33N 22°18' E 114°13'0 0.1
2014-Dec-21 03:33N 22°18' E 114°13'0 0.0
2014-Dec-21 02:33N 22°18' E 114°13'0 0.0
2014-Dec-21 01:33N 22°18' E 114°13'0 0.0
2014-Dec-21 00:33N 22°18' E 114°13'0 0.4
2014-Dec-20 23:33N 22°18' E 114°13'8 8.4
2014-Dec-20 22:34N 22°11' E 114°19'6 6.1
2014-Dec-20 21:33N 22°05' E 114°17'0 0.0
2014-Dec-20 16:10N 22°05' E 114°17'8 2.6
2014-Dec-20 13:14N 22°13' E 114°18'7 9.7
2014-Dec-20 12:33N 22°18' E 114°13'0 0.1
2014-Dec-20 11:33N 22°18' E 114°13'0 0.0
2014-Dec-20 10:33N 22°18' E 114°13'0 0.0
2014-Dec-20 09:33N 22°18' E 114°13'0 0.0
2014-Dec-20 08:33N 22°18' E 114°13'0 0.0
2014-Dec-20 07:33N 22°18' E 114°13'0 0.0
2014-Dec-20 06:33N 22°18' E 114°13'0 0.0
2014-Dec-20 05:33N 22°18' E 114°13'0 0.0
2014-Dec-20 04:33N 22°18' E 114°13'0 0.1
2014-Dec-20 03:32N 22°18' E 114°13'0 0.0
2014-Dec-20 02:32N 22°18' E 114°13'0 0.0
2014-Dec-20 01:32N 22°18' E 114°13'0 0.1
2014-Dec-20 00:32N 22°18' E 114°13'0 0.3
2014-Dec-19 23:33N 22°18' E 114°13'1 0.1
2014-Dec-19 13:07N 22°17' E 114°15'2 2.9
2014-Dec-19 12:32N 22°18' E 114°13'0 0.0
2014-Dec-19 11:32N 22°18' E 114°13'0 0.0
2014-Dec-19 10:32N 22°18' E 114°13'0 0.1
2014-Dec-19 09:29N 22°18' E 114°13'0 0.0
2014-Dec-19 08:32N 22°18' E 114°13'0 0.1
2014-Dec-19 07:32N 22°18' E 114°13'0 0.0
2014-Dec-19 06:32N 22°18' E 114°13'0 0.0
2014-Dec-19 05:32N 22°18' E 114°13'0 0.0
2014-Dec-19 04:32N 22°18' E 114°13'0 0.0
2014-Dec-19 03:32N 22°18' E 114°13'0 0.0
2014-Dec-19 02:29N 22°18' E 114°13'0 0.0
2014-Dec-19 01:32N 22°18' E 114°13'0 0.0
2014-Dec-19 00:32N 22°18' E 114°13'0 0.3
2014-Dec-18 23:34N 22°18' E 114°13'0 0.0
2014-Dec-18 12:32N 22°18' E 114°13'0 0.0
2014-Dec-18 11:32N 22°18' E 114°13'0 0.1
2014-Dec-18 10:32N 22°18' E 114°13'0 0.0
2014-Dec-18 09:32N 22°18' E 114°13'0 0.0
2014-Dec-18 08:32N 22°18' E 114°13'0 0.0
2014-Dec-18 07:32N 22°18' E 114°13'0 0.0
2014-Dec-18 06:32N 22°18' E 114°13'0 0.0
2014-Dec-18 05:32N 22°18' E 114°13'0 0.0
2014-Dec-18 04:32N 22°18' E 114°13'0 0.0
2014-Dec-18 03:32N 22°18' E 114°13'0 0.1
2014-Dec-18 02:32N 22°18' E 114°13'0 0.1
2014-Dec-18 01:29N 22°18' E 114°13'0 0.0
2014-Dec-18 00:32N 22°18' E 114°13'0 0.2
2014-Dec-17 23:33N 22°18' E 114°13'10 8.2
2014-Dec-17 22:23N 22°10' E 114°19'2 0.3
2014-Dec-17 13:13N 22°12' E 114°19'711.4
2014-Dec-17 12:34N 22°18' E 114°13'0 0.1
2014-Dec-17 11:33N 22°18' E 114°13'0 0.0
2014-Dec-17 10:33N 22°18' E 114°13'0 0.0
2014-Dec-17 09:33N 22°18' E 114°13'0 0.1
2014-Dec-17 08:33N 22°18' E 114°13'0 0.0
2014-Dec-17 07:33N 22°18' E 114°13'0 0.0
2014-Dec-17 06:30N 22°18' E 114°13'0 0.0
2014-Dec-17 05:33N 22°18' E 114°13'0 0.0
2014-Dec-17 04:33N 22°18' E 114°13'0 0.0
2014-Dec-17 03:33N 22°18' E 114°13'0 0.0
2014-Dec-17 02:33N 22°18' E 114°13'0 0.1
2014-Dec-17 01:33N 22°18' E 114°13'0 0.0
2014-Dec-17 00:33N 22°18' E 114°13'0 0.3
2014-Dec-16 23:33N 22°18' E 114°13'8 8.1
2014-Dec-16 22:30N 22°11' E 114°19'2 0.2
2014-Dec-16 13:14N 22°13' E 114°18'7 9.9
2014-Dec-16 12:32N 22°18' E 114°13'0 0.0
2014-Dec-16 11:32N 22°18' E 114°13'0 0.0
2014-Dec-16 10:32N 22°18' E 114°13'0 0.0
2014-Dec-16 09:32N 22°18' E 114°13'0 0.0
2014-Dec-16 08:32N 22°18' E 114°13'0 0.0
2014-Dec-16 07:32N 22°18' E 114°13'0 0.0
2014-Dec-16 06:32N 22°18' E 114°13'0 0.0
2014-Dec-16 05:32N 22°18' E 114°13'0 0.0
2014-Dec-16 04:23N 22°18' E 114°13'0 0.0
2014-Dec-16 03:32N 22°18' E 114°13'0 0.0
2014-Dec-16 02:32N 22°18' E 114°13'0 0.0
2014-Dec-16 01:32N 22°18' E 114°13'1 0.6
2014-Dec-15 23:33N 22°17' E 114°14'1 0.1
2014-Dec-15 12:33N 22°18' E 114°13'0 0.0
2014-Dec-15 11:33N 22°18' E 114°13'0 0.1
2014-Dec-15 10:33N 22°18' E 114°13'0 0.1
2014-Dec-15 09:33N 22°18' E 114°13'0 0.0
2014-Dec-15 08:33N 22°18' E 114°13'0 0.1
2014-Dec-15 07:33N 22°18' E 114°13'0 0.0
2014-Dec-15 06:33N 22°18' E 114°13'0 0.0
2014-Dec-15 05:33N 22°18' E 114°13'0 0.0
2014-Dec-15 04:24N 22°18' E 114°13'0 0.0
2014-Dec-15 03:27N 22°18' E 114°13'0 0.0
2014-Dec-15 02:33N 22°18' E 114°13'0 0.0
2014-Dec-15 01:30N 22°18' E 114°13'0 0.1
2014-Dec-15 00:33N 22°18' E 114°13'1 0.9
2014-Dec-14 23:33N 22°17' E 114°14'1 0.1
2014-Dec-14 12:32N 22°18' E 114°13'0 0.1
2014-Dec-14 11:32N 22°18' E 114°13'0 0.0
2014-Dec-14 10:32N 22°18' E 114°13'0 0.0
2014-Dec-14 09:32N 22°18' E 114°13'0 0.0
2014-Dec-14 08:32N 22°18' E 114°13'0 0.0
2014-Dec-14 07:32N 22°18' E 114°13'0 0.0
2014-Dec-14 06:32N 22°18' E 114°13'0 0.0
2014-Dec-14 05:32N 22°18' E 114°13'0 0.0
2014-Dec-14 04:32N 22°18' E 114°13'0 0.1
2014-Dec-14 03:32N 22°18' E 114°13'0 0.1
2014-Dec-14 02:32N 22°18' E 114°13'0 0.0
2014-Dec-14 01:32N 22°18' E 114°13'0 0.0
2014-Dec-14 00:32N 22°18' E 114°13'1 0.7
2014-Dec-13 23:34N 22°17' E 114°14'1 0.1
2014-Dec-13 12:33N 22°18' E 114°13'0 0.1
2014-Dec-13 11:33N 22°18' E 114°13'0 0.0
2014-Dec-13 10:33N 22°18' E 114°13'0 0.0
2014-Dec-13 09:33N 22°18' E 114°13'0 0.1
2014-Dec-13 08:33N 22°18' E 114°13'0 0.0
2014-Dec-13 07:33N 22°18' E 114°13'0 0.0
2014-Dec-13 06:33N 22°18' E 114°13'0 0.0
2014-Dec-13 05:33N 22°18' E 114°13'0 0.0
2014-Dec-13 04:33N 22°18' E 114°13'0 0.0
2014-Dec-13 03:33N 22°18' E 114°13'0 0.0
2014-Dec-13 02:33N 22°18' E 114°13'0 0.1
2014-Dec-13 01:33N 22°18' E 114°13'0 0.1
2014-Dec-13 00:33N 22°18' E 114°13'1 0.1
2014-Dec-12 12:31N 22°18' E 114°12'0 0.0
2014-Dec-12 09:25N 22°18' E 114°12'0 0.0
2014-Dec-12 07:16N 22°18' E 114°12'0 0.1
2014-Dec-12 06:31N 22°18' E 114°12'0 0.0
2014-Dec-12 05:31N 22°18' E 114°12'0 0.0
2014-Dec-12 04:25N 22°18' E 114°12'0 0.0
2014-Dec-12 03:28N 22°18' E 114°12'  
Track history (hours):
 
Tides and Currents Weather Stations Pressure Air Temp Water Temp Dewpoint Dewpoint Depression Visibility Wind Speed Wind Dir Waves Ship Positions

Pongnae

Operator: V Ships Leisure SAM

Last reported at 2014-Dec-22 00:32 UTC. Time now 2014-Dec-22 00:36 UTC.
Position N 22°18' E 114°13'.

Length 171 m; draft 6.6 m.

Type: Passenger vessel. MMSI: 353669000.

Date/timePositionNaut miles runAvg speedWind from/ knotsBaromVisibWave heightAir tempDewpointWater temp
2014-Dec-22 00:32N 22°18' E 114°13'1 1.4
2014-Dec-21 23:33N 22°17' E 114°14'8 7.4
2014-Dec-21 22:27N 22°10' E 114°20'2 0.2
2014-Dec-21 13:21N 22°12' E 114°19'810.0
2014-Dec-21 12:33N 22°18' E 114°13'0 0.1
2014-Dec-21 11:33N 22°18' E 114°13'0 0.0
2014-Dec-21 10:33N 22°18' E 114°13'0 0.0
2014-Dec-21 09:33N 22°18' E 114°13'0 0.0
2014-Dec-21 08:33N 22°18' E 114°13'0 0.0
2014-Dec-21 07:33N 22°18' E 114°13'0 0.0
2014-Dec-21 06:33N 22°18' E 114°13'0 0.1
2014-Dec-21 05:33N 22°18' E 114°13'0 0.0
2014-Dec-21 04:33N 22°18' E 114°13'0 0.1
2014-Dec-21 03:33N 22°18' E 114°13'0 0.0
2014-Dec-21 02:33N 22°18' E 114°13'0 0.0
2014-Dec-21 01:33N 22°18' E 114°13'0 0.0
2014-Dec-21 00:33N 22°18' E 114°13'0 0.4
2014-Dec-20 23:33N 22°18' E 114°13'8 8.4
2014-Dec-20 22:34N 22°11' E 114°19'6 6.1
2014-Dec-20 21:33N 22°05' E 114°17'0 0.0
2014-Dec-20 16:10N 22°05' E 114°17'8 2.6
2014-Dec-20 13:14N 22°13' E 114°18'7 9.7
2014-Dec-20 12:33N 22°18' E 114°13'0 0.1
2014-Dec-20 11:33N 22°18' E 114°13'0 0.0
2014-Dec-20 10:33N 22°18' E 114°13'0 0.0
2014-Dec-20 09:33N 22°18' E 114°13'0 0.0
2014-Dec-20 08:33N 22°18' E 114°13'0 0.0
2014-Dec-20 07:33N 22°18' E 114°13'0 0.0
2014-Dec-20 06:33N 22°18' E 114°13'0 0.0
2014-Dec-20 05:33N 22°18' E 114°13'0 0.0
2014-Dec-20 04:33N 22°18' E 114°13'0 0.1
2014-Dec-20 03:32N 22°18' E 114°13'0 0.0
2014-Dec-20 02:32N 22°18' E 114°13'0 0.0
2014-Dec-20 01:32N 22°18' E 114°13'0 0.1
2014-Dec-20 00:32N 22°18' E 114°13'0 0.3
2014-Dec-19 23:33N 22°18' E 114°13'1 0.1
2014-Dec-19 13:07N 22°17' E 114°15'2 2.9
2014-Dec-19 12:32N 22°18' E 114°13'0 0.0
2014-Dec-19 11:32N 22°18' E 114°13'0 0.0
2014-Dec-19 10:32N 22°18' E 114°13'0 0.1
2014-Dec-19 09:29N 22°18' E 114°13'0 0.0
2014-Dec-19 08:32N 22°18' E 114°13'0 0.1
2014-Dec-19 07:32N 22°18' E 114°13'0 0.0
2014-Dec-19 06:32N 22°18' E 114°13'0 0.0
2014-Dec-19 05:32N 22°18' E 114°13'0 0.0
2014-Dec-19 04:32N 22°18' E 114°13'0 0.0
2014-Dec-19 03:32N 22°18' E 114°13'0 0.0
2014-Dec-19 02:29N 22°18' E 114°13'0 0.0
2014-Dec-19 01:32N 22°18' E 114°13'0 0.0
2014-Dec-19 00:32N 22°18' E 114°13'0 0.3
2014-Dec-18 23:34N 22°18' E 114°13'0 0.0
2014-Dec-18 12:32N 22°18' E 114°13'0 0.0
2014-Dec-18 11:32N 22°18' E 114°13'0 0.1
2014-Dec-18 10:32N 22°18' E 114°13'0 0.0
2014-Dec-18 09:32N 22°18' E 114°13'0 0.0
2014-Dec-18 08:32N 22°18' E 114°13'0 0.0
2014-Dec-18 07:32N 22°18' E 114°13'0 0.0
2014-Dec-18 06:32N 22°18' E 114°13'0 0.0
2014-Dec-18 05:32N 22°18' E 114°13'0 0.0
2014-Dec-18 04:32N 22°18' E 114°13'0 0.0
2014-Dec-18 03:32N 22°18' E 114°13'0 0.1
2014-Dec-18 02:32N 22°18' E 114°13'0 0.1
2014-Dec-18 01:29N 22°18' E 114°13'0 0.0
2014-Dec-18 00:32N 22°18' E 114°13'0 0.2
2014-Dec-17 23:33N 22°18' E 114°13'10 8.2
2014-Dec-17 22:23N 22°10' E 114°19'2 0.3
2014-Dec-17 13:13N 22°12' E 114°19'711.4
2014-Dec-17 12:34N 22°18' E 114°13'0 0.1
2014-Dec-17 11:33N 22°18' E 114°13'0 0.0
2014-Dec-17 10:33N 22°18' E 114°13'0 0.0
2014-Dec-17 09:33N 22°18' E 114°13'0 0.1
2014-Dec-17 08:33N 22°18' E 114°13'0 0.0
2014-Dec-17 07:33N 22°18' E 114°13'0 0.0
2014-Dec-17 06:30N 22°18' E 114°13'0 0.0
2014-Dec-17 05:33N 22°18' E 114°13'0 0.0
2014-Dec-17 04:33N 22°18' E 114°13'0 0.0
2014-Dec-17 03:33N 22°18' E 114°13'0 0.0
2014-Dec-17 02:33N 22°18' E 114°13'0 0.1
2014-Dec-17 01:33N 22°18' E 114°13'0 0.0
2014-Dec-17 00:33N 22°18' E 114°13'0 0.3
2014-Dec-16 23:33N 22°18' E 114°13'8 8.1
2014-Dec-16 22:30N 22°11' E 114°19'2 0.2
2014-Dec-16 13:14N 22°13' E 114°18'7 9.9
2014-Dec-16 12:32N 22°18' E 114°13'0 0.0
2014-Dec-16 11:32N 22°18' E 114°13'0 0.0
2014-Dec-16 10:32N 22°18' E 114°13'0 0.0
2014-Dec-16 09:32N 22°18' E 114°13'0 0.0
2014-Dec-16 08:32N 22°18' E 114°13'0 0.0
2014-Dec-16 07:32N 22°18' E 114°13'0 0.0
2014-Dec-16 06:32N 22°18' E 114°13'0 0.0
2014-Dec-16 05:32N 22°18' E 114°13'0 0.0
2014-Dec-16 04:23N 22°18' E 114°13'0 0.0
2014-Dec-16 03:32N 22°18' E 114°13'0 0.0
2014-Dec-16 02:32N 22°18' E 114°13'0 0.0
2014-Dec-16 01:32N 22°18' E 114°13'1 0.6
2014-Dec-15 23:33N 22°17' E 114°14'1 0.1
2014-Dec-15 12:33N 22°18' E 114°13'0 0.0
2014-Dec-15 11:33N 22°18' E 114°13'0 0.1
2014-Dec-15 10:33N 22°18' E 114°13'0 0.1
2014-Dec-15 09:33N 22°18' E 114°13'0 0.0
2014-Dec-15 08:33N 22°18' E 114°13'0 0.1
2014-Dec-15 07:33N 22°18' E 114°13'0 0.0
2014-Dec-15 06:33N 22°18' E 114°13'0 0.0
2014-Dec-15 05:33N 22°18' E 114°13'0 0.0
2014-Dec-15 04:24N 22°18' E 114°13'0 0.0
2014-Dec-15 03:27N 22°18' E 114°13'0 0.0
2014-Dec-15 02:33N 22°18' E 114°13'0 0.0
2014-Dec-15 01:30N 22°18' E 114°13'0 0.1
2014-Dec-15 00:33N 22°18' E 114°13'1 0.9
2014-Dec-14 23:33N 22°17' E 114°14'1 0.1
2014-Dec-14 12:32N 22°18' E 114°13'0 0.1
2014-Dec-14 11:32N 22°18' E 114°13'0 0.0
2014-Dec-14 10:32N 22°18' E 114°13'0 0.0
2014-Dec-14 09:32N 22°18' E 114°13'0 0.0
2014-Dec-14 08:32N 22°18' E 114°13'0 0.0
2014-Dec-14 07:32N 22°18' E 114°13'0 0.0
2014-Dec-14 06:32N 22°18' E 114°13'0 0.0
2014-Dec-14 05:32N 22°18' E 114°13'0 0.0
2014-Dec-14 04:32N 22°18' E 114°13'0 0.1
2014-Dec-14 03:32N 22°18' E 114°13'0 0.1
2014-Dec-14 02:32N 22°18' E 114°13'0 0.0
2014-Dec-14 01:32N 22°18' E 114°13'0 0.0
2014-Dec-14 00:32N 22°18' E 114°13'1 0.7
2014-Dec-13 23:34N 22°17' E 114°14'1 0.1
2014-Dec-13 12:33N 22°18' E 114°13'0 0.1
2014-Dec-13 11:33N 22°18' E 114°13'0 0.0
2014-Dec-13 10:33N 22°18' E 114°13'0 0.0
2014-Dec-13 09:33N 22°18' E 114°13'0 0.1
2014-Dec-13 08:33N 22°18' E 114°13'0 0.0
2014-Dec-13 07:33N 22°18' E 114°13'0 0.0
2014-Dec-13 06:33N 22°18' E 114°13'0 0.0
2014-Dec-13 05:33N 22°18' E 114°13'0 0.0
2014-Dec-13 04:33N 22°18' E 114°13'0 0.0
2014-Dec-13 03:33N 22°18' E 114°13'0 0.0
2014-Dec-13 02:33N 22°18' E 114°13'0 0.1
2014-Dec-13 01:33N 22°18' E 114°13'0 0.1
2014-Dec-13 00:33N 22°18' E 114°13'1 0.1
2014-Dec-12 12:31N 22°18' E 114°12'0 0.0
2014-Dec-12 09:25N 22°18' E 114°12'0 0.0
2014-Dec-12 07:16N 22°18' E 114°12'0 0.1
2014-Dec-12 06:31N 22°18' E 114°12'0 0.0
2014-Dec-12 05:31N 22°18' E 114°12'0 0.0
2014-Dec-12 04:25N 22°18' E 114°12'0 0.0
2014-Dec-12 03:28N 22°18' E 114°12'  

Dump ship's entire track history